createdAt,value
2022-10-05T00:00:30.308Z,75.50
2022-10-05T00:04:19.427Z,75.50
2022-10-05T00:08:23.650Z,75.50
2022-10-05T00:12:20.430Z,75.90
2022-10-05T00:16:05.331Z,76.00
2022-10-05T00:19:52.350Z,75.60
2022-10-05T00:28:36.721Z,75.80
2022-10-05T00:32:19.453Z,75.50
2022-10-05T00:36:01.462Z,75.60
2022-10-05T00:39:43.799Z,75.50
2022-10-05T00:43:54.832Z,75.60
2022-10-05T00:48:00.493Z,76.00
2022-10-05T00:51:50.079Z,75.70
2022-10-05T00:55:42.718Z,75.60
2022-10-05T00:59:47.254Z,75.80
2022-10-05T01:03:43.016Z,75.90
2022-10-05T01:07:33.906Z,75.70
2022-10-05T01:11:43.060Z,75.60
2022-10-05T01:16:08.583Z,76.00
2022-10-05T01:20:10.292Z,76.30
2022-10-05T01:24:30.692Z,75.60
2022-10-05T01:28:29.853Z,76.10
2022-10-05T01:32:33.480Z,75.70
2022-10-05T01:36:28.925Z,75.80
2022-10-05T01:40:35.113Z,76.00
2022-10-05T01:44:39.115Z,76.20
2022-10-05T01:48:45.611Z,76.00
2022-10-05T01:53:03.555Z,76.50
2022-10-05T01:57:03.839Z,76.40
2022-10-05T02:01:09.781Z,76.80
2022-10-05T02:05:12.998Z,76.30
2022-10-05T02:09:14.884Z,76.50
2022-10-05T02:13:12.693Z,76.60
2022-10-05T02:16:58.012Z,76.50
2022-10-05T02:20:42.919Z,76.30
2022-10-05T02:24:32.497Z,76.40
2022-10-05T02:28:28.253Z,76.40
2022-10-05T02:32:20.330Z,76.60
2022-10-05T02:36:11.100Z,76.40
2022-10-05T02:40:10.996Z,76.50
2022-10-05T02:44:04.780Z,76.50
2022-10-05T02:47:46.826Z,76.50
2022-10-05T02:51:37.346Z,76.50
2022-10-05T02:55:31.315Z,76.80
2022-10-05T02:59:31.404Z,77.40
2022-10-05T03:03:38.028Z,77.30
2022-10-05T03:07:43.681Z,77.50
2022-10-05T03:11:48.619Z,77.10
2022-10-05T03:16:02.210Z,77.30
2022-10-05T03:19:44.367Z,77.30
2022-10-05T03:23:57.759Z,77.00
2022-10-05T03:27:53.239Z,77.80
2022-10-05T03:32:10.020Z,77.30
2022-10-05T03:36:29.786Z,77.60
2022-10-05T03:40:32.554Z,77.70
2022-10-05T03:44:31.925Z,77.40
2022-10-05T03:48:25.673Z,77.80
2022-10-05T03:52:15.021Z,77.20
2022-10-05T03:56:10.765Z,77.50
2022-10-05T04:00:07.483Z,77.90
2022-10-05T04:03:55.232Z,77.40
2022-10-05T04:07:44.087Z,77.40
2022-10-05T04:11:39.634Z,77.30
2022-10-05T04:15:32.468Z,77.90
2022-10-05T04:19:32.267Z,77.50
2022-10-05T04:23:30.890Z,78.10
2022-10-05T04:27:27.450Z,77.30
2022-10-05T04:31:16.439Z,77.40
2022-10-05T04:35:09.981Z,77.40
2022-10-05T04:39:07.389Z,77.90
2022-10-05T04:43:17.001Z,78.10
2022-10-05T04:47:11.860Z,78.30
2022-10-05T04:51:20.899Z,78.20
2022-10-05T04:55:34.227Z,78.80
2022-10-05T04:59:50.333Z,79.00
2022-10-05T05:21:49.856Z,81.10
2022-10-05T05:26:01.519Z,80.30
2022-10-05T05:30:32.249Z,81.10
2022-10-05T05:34:33.382Z,81.20
2022-10-05T05:38:48.692Z,81.20
2022-10-05T05:42:51.240Z,82.00
2022-10-05T05:50:57.627Z,81.30
2022-10-05T05:54:46.919Z,80.90
2022-10-05T05:58:38.596Z,80.60
2022-10-05T06:02:25.600Z,80.90
2022-10-05T06:06:15.000Z,80.80
2022-10-05T06:10:06.589Z,81.00
2022-10-05T06:13:49.352Z,81.30
2022-10-05T06:17:43.795Z,81.00
2022-10-05T06:21:55.906Z,81.00
2022-10-05T06:26:10.840Z,81.30
2022-10-05T06:30:07.893Z,80.50
2022-10-05T06:33:59.507Z,80.60
2022-10-05T06:38:23.625Z,80.30
2022-10-05T06:42:25.073Z,80.80
2022-10-05T06:46:19.395Z,80.50
2022-10-05T06:50:19.978Z,80.70
2022-10-05T06:54:39.757Z,80.20
2022-10-05T06:58:31.523Z,80.80
2022-10-05T07:02:33.555Z,80.50
2022-10-05T07:06:28.261Z,81.10
2022-10-05T07:10:40.726Z,80.30
2022-10-05T07:14:41.629Z,80.50
2022-10-05T07:18:42.668Z,80.40
2022-10-05T07:22:36.784Z,80.60
2022-10-05T07:26:22.826Z,79.80
2022-10-05T07:30:10.181Z,79.80
2022-10-05T07:34:07.753Z,79.80
2022-10-05T07:37:55.802Z,80.10
2022-10-05T07:41:51.336Z,79.80
2022-10-05T07:45:51.785Z,79.60
2022-10-05T07:50:04.061Z,79.20
2022-10-05T07:54:24.670Z,79.10
2022-10-05T07:58:06.768Z,78.50
2022-10-05T08:01:55.711Z,79.20
2022-10-05T08:05:47.122Z,78.60
2022-10-05T08:09:50.813Z,78.40
2022-10-05T08:14:01.091Z,78.30
2022-10-05T08:18:00.650Z,78.60
2022-10-05T08:22:09.987Z,78.10
2022-10-05T08:26:16.119Z,77.70
2022-10-05T08:30:05.764Z,77.70
2022-10-05T08:34:02.052Z,78.60
2022-10-05T08:37:46.114Z,78.00
2022-10-05T08:42:13.327Z,77.40
2022-10-05T08:46:10.511Z,76.80
2022-10-05T08:50:30.123Z,76.90
2022-10-05T08:54:32.240Z,77.20
2022-10-05T09:03:43.122Z,75.40
2022-10-05T09:08:18.657Z,75.70
2022-10-05T09:12:38.326Z,75.40
2022-10-05T09:16:32.331Z,76.10
2022-10-05T09:20:39.092Z,76.50
2022-10-05T09:24:39.035Z,76.40
2022-10-05T09:28:25.491Z,76.70
2022-10-05T09:32:27.945Z,76.90
2022-10-05T09:36:48.786Z,77.70
2022-10-05T09:40:49.214Z,78.60
2022-10-05T09:44:52.652Z,77.70
2022-10-05T09:48:52.415Z,78.50
2022-10-05T09:52:40.024Z,78.60
2022-10-05T09:56:47.241Z,79.30
2022-10-05T10:00:54.109Z,80.80
2022-10-05T10:05:43.331Z,80.60
2022-10-05T10:10:19.469Z,81.80
2022-10-05T10:14:24.069Z,81.90
2022-10-05T10:18:27.725Z,82.50
2022-10-05T10:22:34.289Z,82.00
2022-10-05T10:26:47.873Z,81.60
2022-10-05T10:30:45.148Z,82.80
2022-10-05T10:34:40.149Z,82.10
2022-10-05T10:38:34.341Z,83.20
2022-10-05T10:42:32.451Z,82.60
2022-10-05T10:46:23.245Z,81.40
2022-10-05T10:50:17.624Z,82.10
2022-10-05T10:54:12.434Z,81.90
2022-10-05T10:58:15.082Z,82.30
2022-10-05T11:02:42.741Z,82.30
2022-10-05T11:06:43.607Z,84.30
2022-10-05T11:10:34.590Z,85.30
2022-10-05T11:14:52.506Z,86.40
2022-10-05T11:19:12.367Z,83.80
2022-10-05T11:23:18.916Z,83.00
2022-10-05T11:27:09.780Z,81.90
2022-10-05T11:31:13.188Z,81.70
2022-10-05T11:35:26.490Z,81.90
2022-10-05T11:39:23.592Z,81.90
2022-10-05T11:43:37.594Z,81.60
2022-10-05T11:47:28.006Z,81.70
2022-10-05T11:51:15.848Z,81.70
2022-10-05T11:55:33.234Z,82.20
2022-10-05T11:59:20.158Z,81.90
2022-10-05T12:03:46.041Z,81.70
2022-10-05T12:07:43.592Z,80.90
2022-10-05T12:12:06.039Z,80.70
2022-10-05T12:16:06.890Z,80.80
2022-10-05T12:20:07.987Z,81.00
2022-10-05T12:23:54.388Z,81.20
2022-10-05T12:27:42.277Z,81.30
2022-10-05T12:31:44.140Z,80.90
2022-10-05T12:35:43.805Z,80.80
2022-10-05T12:39:50.696Z,80.80
2022-10-05T12:43:57.587Z,80.50
2022-10-05T12:47:58.122Z,80.40
2022-10-05T12:51:58.494Z,81.10
2022-10-05T12:55:50.919Z,80.60
2022-10-05T12:59:41.678Z,80.00
2022-10-05T13:03:50.175Z,79.50
2022-10-05T13:07:38.719Z,79.60
2022-10-05T13:11:49.558Z,78.60
2022-10-05T13:15:43.739Z,77.20
2022-10-05T13:19:35.738Z,77.40
2022-10-05T13:23:32.061Z,77.30
2022-10-05T13:27:22.355Z,78.20
2022-10-05T13:31:12.762Z,78.80
2022-10-05T13:35:10.613Z,77.90
2022-10-05T13:39:10.360Z,78.40
2022-10-05T13:43:04.109Z,77.90
2022-10-05T13:46:50.362Z,77.70
2022-10-05T13:50:45.108Z,77.60
2022-10-05T13:54:48.310Z,77.00
2022-10-05T13:58:44.059Z,75.60
2022-10-05T14:02:40.685Z,76.00
2022-10-05T14:06:30.114Z,75.10
2022-10-05T14:10:15.285Z,76.90
2022-10-05T14:14:23.765Z,76.40
2022-10-05T14:18:39.479Z,75.40
2022-10-05T14:22:24.665Z,73.40
2022-10-05T14:26:27.452Z,76.00
2022-10-05T14:30:12.261Z,71.20
2022-10-05T14:33:54.409Z,74.80
2022-10-05T14:37:57.824Z,74.90
2022-10-05T14:41:48.070Z,74.40
2022-10-05T14:45:30.330Z,72.60
2022-10-05T14:49:36.271Z,73.60
2022-10-05T14:53:21.556Z,71.40
2022-10-05T14:57:31.169Z,73.30
2022-10-05T15:01:31.853Z,70.30
2022-10-05T15:05:42.296Z,70.70
2022-10-05T15:09:45.497Z,71.50
2022-10-05T15:13:42.057Z,71.60
2022-10-05T15:17:31.100Z,72.80
2022-10-05T15:21:15.900Z,73.00
2022-10-05T15:25:23.192Z,73.30
2022-10-05T15:29:24.347Z,72.40
2022-10-05T15:33:36.528Z,72.60
2022-10-05T15:37:22.281Z,68.40
2022-10-05T15:41:20.045Z,71.60
2022-10-05T15:45:19.299Z,70.40
2022-10-05T15:49:21.671Z,71.80
2022-10-05T15:53:25.504Z,69.30
2022-10-05T15:57:47.321Z,70.00
2022-10-05T16:01:47.309Z,69.00
2022-10-05T16:06:07.909Z,70.00
2022-10-05T16:10:01.603Z,69.00
2022-10-05T16:14:08.822Z,69.70
2022-10-05T16:18:21.639Z,70.50
2022-10-05T16:22:38.827Z,69.80
2022-10-05T16:26:31.792Z,68.70
2022-10-05T16:30:18.348Z,70.70
2022-10-05T16:34:17.354Z,70.90
2022-10-05T16:38:08.366Z,68.80
2022-10-05T16:41:55.087Z,70.20
2022-10-05T16:45:52.383Z,69.70
2022-10-05T16:50:06.305Z,65.70
2022-10-05T16:54:03.364Z,64.60
2022-10-05T16:57:51.767Z,68.10
2022-10-05T17:01:43.776Z,68.30
2022-10-05T17:05:31.721Z,66.90
2022-10-05T17:09:29.223Z,67.70
2022-10-05T17:13:28.860Z,67.10
2022-10-05T17:17:36.576Z,68.20
2022-10-05T17:21:26.479Z,66.90
2022-10-05T17:25:24.400Z,68.80
2022-10-05T17:29:16.719Z,69.00
2022-10-05T17:33:29.208Z,68.30
2022-10-05T17:37:27.946Z,68.70
2022-10-05T17:41:09.922Z,68.70
2022-10-05T17:44:58.794Z,68.90
2022-10-05T17:48:50.041Z,69.00
2022-10-05T17:52:50.772Z,69.10
2022-10-05T17:56:48.125Z,69.30
2022-10-05T18:00:40.904Z,69.20
2022-10-05T18:04:32.604Z,69.80
2022-10-05T18:08:16.861Z,69.70
2022-10-05T18:12:16.312Z,69.90
2022-10-05T18:15:58.808Z,70.00
2022-10-05T18:19:41.598Z,70.00
2022-10-05T18:23:24.032Z,70.10
2022-10-05T18:27:31.988Z,70.20
2022-10-05T18:32:05.657Z,69.60
2022-10-05T18:36:04.812Z,68.20
2022-10-05T18:40:05.807Z,69.50
2022-10-05T18:43:53.761Z,68.40
2022-10-05T18:47:59.567Z,68.40
2022-10-05T18:51:53.909Z,69.30
2022-10-05T18:55:42.171Z,69.60
2022-10-05T18:59:42.366Z,69.50
2022-10-05T19:03:35.521Z,69.00
2022-10-05T19:07:46.548Z,69.20
2022-10-05T19:11:41.270Z,69.30
2022-10-05T19:15:54.258Z,69.10
2022-10-05T19:19:55.433Z,69.20
2022-10-05T19:23:37.238Z,69.70
2022-10-05T19:27:55.585Z,68.80
2022-10-05T19:31:53.220Z,69.00
2022-10-05T19:35:52.028Z,69.60
2022-10-05T19:39:53.742Z,69.80
2022-10-05T19:44:07.226Z,69.60
